首页
METAR-TAF:

METAR-TAF

机场 :

布達佩斯李斯特·費倫茨國際機場

布达佩斯, 匈牙利

纬度: 47-26N, 经度: 019-16E, 海拔: 151米

当前天气观测

该预报发布于28分钟前的14:30 UTC
风速14节,风向西南
温度 12°C
湿度 54%
气压 1016 hPa
能见度10公里或以上
小阵雨

METAR: LHBP 231430Z 23014KT 9999 -SHRA NSC 12/03 Q1016 NOSIG

时间: 15:58 (14:58 UTC)

预报

该预报发布于3小时和43分钟前的11:15 UTC
预报有效从23日的 12点(UTC)到 24日的 12点(UTC)
风速17节,风向西转西北,有时为27节阵风
能见度10公里或以上
少量云层高于4500英尺
多云层高于7000英尺
小阵雨
成为
从 23日的 12点(UTC)到 23日的 14点(UTC)
风速12节,风向西转西南,有时为25节阵风
能见度10公里或以上
1500米以下无云,无积雨云
成为
从 23日的 21点(UTC)到 23日的 23点(UTC)
风速20节,风向西,有时为35节阵风
短暂存在
从 23日的 23点(UTC)到 24日的 04点(UTC)
多云层高于4000英尺
多云层高于6000英尺
小阵雨
成为
从 24日的 00点(UTC)到 24日的 02点(UTC)
风速26节,风向西北,有时为45节阵风
成为
从 24日的 04点(UTC)到 24日的 06点(UTC)
风速18节,风向西北,有时为35节阵风
成为
从 24日的 08点(UTC)到 24日的 10点(UTC)
风速15节,风向西转西北,有时为25节阵风
少量云层高于4000英尺
成为
从 24日的 10点(UTC)到 24日的 12点(UTC)
能见度10公里或以上
1500米以下无云,无积雨云

TAF: LHBP 231115Z 2312/2412 30017G27KT 9999 -SHRA FEW045 BKN070 BECMG 2312/2314 24012G25KT CAVOK BECMG 2321/2323 27020G35KT TEMPO 2323/2404 -SHRA BKN040 BKN060 BECMG 2400/2402 32026G45KT BECMG 2404/2406 31018G35KT BECMG 2408/2410 29015G25KT FEW040 BECMG 2410/2412 CAVOK

超过4000个机场的气象观测和天气预报(METAR&TAF报告)。

可查询的气象台以黄色和红色小点在地图上表示。

将鼠标移到小点上方,可查看气象台名称。

然后点击查看天气观测和预报。

如需切换地图:点击带黑十字的绿色按钮放大地图;点击带横线的绿色按钮缩小地图;或者点击绿色箭头查看邻近地区的地图。


METAR-TAF: